createdAt,value
2022-08-07T00:02:40.680Z,102602.91
2022-08-07T00:04:59.309Z,102595.84
2022-08-07T00:07:29.293Z,102596.75
2022-08-07T00:10:25.896Z,102517.59
2022-08-07T00:13:00.726Z,102601.22
2022-08-07T00:15:36.090Z,102597.69
2022-08-07T00:18:09.048Z,102597.66
2022-08-07T00:20:49.620Z,102599.47
2022-08-07T00:23:21.201Z,102598.53
2022-08-07T00:25:52.144Z,102598.53
2022-08-07T00:28:33.532Z,102578.97
2022-08-07T00:31:05.745Z,102586.00
2022-08-07T00:33:35.673Z,102590.47
2022-08-07T00:36:06.012Z,102587.81
2022-08-07T00:38:37.285Z,102585.16
2022-08-07T00:41:09.916Z,102577.09
2022-08-07T00:44:01.340Z,102581.59
2022-08-07T00:46:32.899Z,102538.00
2022-08-07T00:49:02.945Z,102579.81
2022-08-07T00:51:57.719Z,102579.78
2022-08-07T00:54:22.355Z,102552.22
2022-08-07T00:56:51.336Z,102574.47
2022-08-07T00:59:35.068Z,102571.78
2022-08-07T01:02:06.230Z,102567.31
2022-08-07T01:04:43.939Z,102576.28
2022-08-07T01:07:13.300Z,102568.34
2022-08-07T01:10:05.737Z,102571.16
2022-08-07T01:12:32.609Z,102546.28
2022-08-07T01:15:04.038Z,102556.06
2022-08-07T01:17:34.079Z,102555.13
2022-08-07T01:20:08.539Z,102555.09
2022-08-07T01:22:46.842Z,102562.22
2022-08-07T01:25:54.695Z,102561.28
2022-08-07T01:28:15.559Z,102562.13
2022-08-07T01:30:45.917Z,102578.13
2022-08-07T01:33:18.049Z,102559.41
2022-08-07T01:35:53.423Z,102558.56
2022-08-07T01:38:29.242Z,102558.59
2022-08-07T01:41:05.664Z,102558.59
2022-08-07T01:43:38.280Z,102559.47
2022-08-07T01:46:12.362Z,102551.56
2022-08-07T01:48:46.721Z,102553.41
2022-08-07T01:52:02.363Z,102562.31
2022-08-07T01:54:22.039Z,102553.38
2022-08-07T01:57:09.565Z,102548.06
2022-08-07T01:59:58.213Z,102551.56
2022-08-07T02:03:11.902Z,102553.41
2022-08-07T02:05:43.017Z,102549.81
2022-08-07T02:08:24.604Z,102548.94
2022-08-07T02:10:59.456Z,102540.94
2022-08-07T02:13:56.480Z,102548.94
2022-08-07T02:16:29.919Z,102540.06
2022-08-07T02:19:05.529Z,102543.59
2022-08-07T02:21:58.459Z,102545.38
2022-08-07T02:24:29.279Z,102527.56
2022-08-07T02:27:01.389Z,102532.88
2022-08-07T02:29:32.940Z,102523.13
2022-08-07T02:32:06.989Z,102524.09
2022-08-07T02:34:51.034Z,102527.63
2022-08-07T02:37:23.891Z,102530.31
2022-08-07T02:40:11.525Z,102526.75
2022-08-07T02:42:48.226Z,102532.06
2022-08-07T02:45:59.001Z,102526.72
2022-08-07T02:48:10.023Z,102519.59
2022-08-07T02:50:45.936Z,102532.94
2022-08-07T02:53:27.299Z,102532.06
2022-08-07T02:56:03.031Z,102520.47
2022-08-07T02:58:39.706Z,102533.78
2022-08-07T03:01:19.215Z,102529.31
2022-08-07T03:04:12.456Z,102522.25
2022-08-07T03:06:46.029Z,102521.41
2022-08-07T03:09:43.773Z,102524.06
2022-08-07T03:12:16.210Z,102522.28
2022-08-07T03:14:53.595Z,102515.13
2022-08-07T03:17:22.463Z,102524.06
2022-08-07T03:19:55.201Z,102401.28
2022-08-07T03:22:29.611Z,102450.22
2022-08-07T03:24:59.887Z,102510.72
2022-08-07T03:27:58.688Z,102516.03
2022-08-07T03:30:24.331Z,102522.28
2022-08-07T03:32:58.736Z,102512.47
2022-08-07T03:35:43.471Z,102516.88
2022-08-07T03:38:27.483Z,102519.56
2022-08-07T03:41:00.545Z,102513.31
2022-08-07T03:43:32.093Z,102521.34
2022-08-07T03:46:18.271Z,102505.34
2022-08-07T03:49:02.485Z,102508.88
2022-08-07T03:51:47.389Z,102484.84
2022-08-07T03:54:36.237Z,102519.56
2022-08-07T03:58:35.449Z,102502.66
2022-08-07T04:00:04.160Z,102492.94
2022-08-07T04:02:47.212Z,102487.56
2022-08-07T04:05:39.198Z,102499.16
2022-08-07T04:08:16.285Z,102519.59
2022-08-07T04:10:53.942Z,102502.63
2022-08-07T04:13:27.672Z,102511.50
2022-08-07T04:15:57.085Z,102501.75
2022-08-07T04:18:58.263Z,102512.47
2022-08-07T04:21:17.891Z,102507.13
2022-08-07T04:24:03.955Z,102514.28
2022-08-07T04:26:35.548Z,102512.50
2022-08-07T04:29:04.329Z,102509.81
2022-08-07T04:31:39.100Z,102513.41
2022-08-07T04:34:30.459Z,102479.56
2022-08-07T04:37:02.813Z,102524.06
2022-08-07T04:39:36.742Z,102518.72
2022-08-07T04:42:13.504Z,102532.03
2022-08-07T04:45:02.599Z,102519.59
2022-08-07T04:47:56.903Z,102526.72
2022-08-07T04:50:40.678Z,102533.84
2022-08-07T04:53:40.286Z,102524.09
2022-08-07T04:58:11.958Z,102531.19
2022-08-07T05:00:12.025Z,102530.28
2022-08-07T05:02:16.877Z,102543.63
2022-08-07T05:05:00.902Z,102538.25
2022-08-07T05:07:48.200Z,102536.41
2022-08-07T05:10:26.174Z,102515.94
2022-08-07T05:14:44.560Z,102541.63
2022-08-07T05:15:53.654Z,102543.28
2022-08-07T05:18:29.863Z,102542.38
2022-08-07T05:21:04.864Z,102550.34
2022-08-07T05:23:42.449Z,102557.47
2022-08-07T05:26:23.736Z,102557.44
2022-08-07T05:28:58.899Z,102524.47
2022-08-07T05:31:37.684Z,102551.91
2022-08-07T05:34:12.896Z,102549.03
2022-08-07T05:36:52.586Z,102555.16
2022-08-07T05:40:14.282Z,102562.25
2022-08-07T05:42:39.175Z,102564.81
2022-08-07T05:45:25.829Z,102562.94
2022-08-07T05:48:03.285Z,102563.69
2022-08-07T05:50:45.590Z,102566.13
2022-08-07T05:54:12.274Z,102568.56
2022-08-07T05:56:12.474Z,102561.19
2022-08-07T05:58:52.553Z,102514.81
2022-08-07T06:01:34.887Z,102558.25
2022-08-07T06:04:08.304Z,102557.19
2022-08-07T06:06:46.133Z,102565.91
2022-08-07T06:09:18.156Z,102569.06
2022-08-07T06:11:51.392Z,102567.88
2022-08-07T06:14:28.645Z,102572.28
2022-08-07T06:17:07.218Z,102600.75
2022-08-07T06:19:52.170Z,102579.88
2022-08-07T06:22:38.506Z,102582.50
2022-08-07T06:25:21.447Z,102589.47
2022-08-07T06:28:01.076Z,102587.03
2022-08-07T06:30:37.525Z,102583.88
2022-08-07T06:33:22.639Z,102580.31
2022-08-07T06:36:12.295Z,102579.75
2022-08-07T06:38:58.357Z,102576.25
2022-08-07T06:42:01.197Z,102584.16
2022-08-07T06:44:39.730Z,102585.44
2022-08-07T06:47:10.567Z,102582.59
2022-08-07T06:49:51.453Z,102584.75
2022-08-07T06:52:31.354Z,102587.09
2022-08-07T06:55:31.676Z,102581.91
2022-08-07T06:58:02.630Z,102590.31
2022-08-07T07:00:42.302Z,102581.00
2022-08-07T07:03:14.489Z,102584.97
2022-08-07T07:06:02.926Z,102588.72
2022-08-07T07:08:39.945Z,102599.63
2022-08-07T07:12:07.622Z,102601.63
2022-08-07T07:14:08.510Z,102591.28
2022-08-07T07:16:49.824Z,102602.69
2022-08-07T07:19:56.101Z,102609.66
2022-08-07T07:22:36.345Z,102603.03
2022-08-07T07:26:30.862Z,102593.22
2022-08-07T07:28:07.807Z,102594.59
2022-08-07T07:30:57.493Z,102595.19
2022-08-07T07:33:30.018Z,102562.47
2022-08-07T07:36:05.518Z,102582.28
2022-08-07T07:38:45.934Z,102559.69
2022-08-07T07:41:17.907Z,102575.63
2022-08-07T07:44:16.849Z,102583.69
2022-08-07T07:46:55.774Z,102574.75
2022-08-07T07:50:34.816Z,102585.50
2022-08-07T07:52:22.207Z,102585.72
2022-08-07T07:54:52.766Z,102537.56
2022-08-07T07:57:43.875Z,102570.03
2022-08-07T08:00:21.164Z,102576.13
2022-08-07T08:03:08.324Z,102576.22
2022-08-07T08:05:53.731Z,102573.25
2022-08-07T08:08:34.909Z,102582.22
2022-08-07T08:11:09.295Z,102577.66
2022-08-07T08:13:53.408Z,102602.75
2022-08-07T08:16:29.605Z,102568.72
2022-08-07T08:19:18.151Z,102577.66
2022-08-07T08:22:10.671Z,102565.16
2022-08-07T08:25:09.321Z,102569.88
2022-08-07T08:27:56.996Z,102564.41
2022-08-07T08:30:28.351Z,102574.00
2022-08-07T08:33:03.103Z,102576.22
2022-08-07T08:35:39.278Z,102567.94
2022-08-07T08:38:20.105Z,102567.47
2022-08-07T08:40:55.832Z,102573.31
2022-08-07T08:43:42.670Z,102567.56
2022-08-07T08:46:20.520Z,102574.75
2022-08-07T08:49:00.979Z,102573.88
2022-08-07T08:52:12.992Z,102568.47
2022-08-07T08:54:31.049Z,102561.47
2022-08-07T08:57:05.276Z,102571.41
2022-08-07T08:59:48.189Z,102565.69
2022-08-07T09:02:37.338Z,102535.59
2022-08-07T09:05:36.931Z,102565.25
2022-08-07T09:08:29.012Z,102561.66
2022-08-07T09:11:24.652Z,102565.94
2022-08-07T09:14:14.268Z,102574.72
2022-08-07T09:17:01.130Z,102572.06
2022-08-07T09:19:55.082Z,102578.03
2022-08-07T09:24:33.849Z,102575.31
2022-08-07T09:25:41.465Z,102568.28
2022-08-07T09:30:05.704Z,102565.03
2022-08-07T09:31:21.907Z,102565.03
2022-08-07T09:34:09.573Z,102558.06
2022-08-07T09:36:56.538Z,102550.84
2022-08-07T09:39:54.115Z,102562.47
2022-08-07T09:42:42.061Z,102566.88
2022-08-07T09:47:24.969Z,102557.53
2022-08-07T09:48:29.878Z,102563.09
2022-08-07T09:52:16.487Z,102553.81
2022-08-07T09:54:11.660Z,102439.88
2022-08-07T09:57:58.892Z,102541.63
2022-08-07T10:00:40.988Z,102546.56
2022-08-07T10:04:03.768Z,102543.53
2022-08-07T10:07:24.415Z,102539.94
2022-08-07T10:10:21.851Z,102534.44
2022-08-07T10:13:15.939Z,102540.44
2022-08-07T10:16:16.918Z,102531.56
2022-08-07T10:19:11.271Z,102531.91
2022-08-07T10:22:15.341Z,102537.28
2022-08-07T10:25:22.559Z,102527.72
2022-08-07T10:28:23.517Z,102532.22
2022-08-07T10:31:12.392Z,102524.28
2022-08-07T10:34:17.772Z,102517.84
2022-08-07T10:37:03.910Z,102417.69
2022-08-07T10:40:03.078Z,102516.19
2022-08-07T10:42:42.405Z,102504.47
2022-08-07T10:45:43.934Z,102503.44
2022-08-07T10:48:34.565Z,102510.84
2022-08-07T10:51:16.735Z,102499.75
2022-08-07T10:54:12.706Z,102440.53
2022-08-07T10:56:51.491Z,102506.00
2022-08-07T10:59:48.951Z,102486.47
2022-08-07T11:02:34.112Z,102497.53
2022-08-07T11:05:35.647Z,102494.13
2022-08-07T11:08:29.230Z,102488.22
2022-08-07T11:11:05.209Z,102506.44
2022-08-07T11:14:43.469Z,102485.19
2022-08-07T11:16:32.887Z,102484.28
2022-08-07T11:19:13.165Z,102479.31
2022-08-07T11:22:04.461Z,102478.25
2022-08-07T11:24:45.590Z,102470.34
2022-08-07T11:27:33.620Z,102469.97
2022-08-07T11:30:18.351Z,102464.34
2022-08-07T11:32:55.641Z,102348.13
2022-08-07T11:35:29.732Z,102463.69
2022-08-07T11:38:17.162Z,102467.97
2022-08-07T11:40:58.845Z,102463.28
2022-08-07T11:43:54.302Z,102464.06
2022-08-07T11:46:38.119Z,102454.41
2022-08-07T11:50:18.827Z,102452.25
2022-08-07T11:52:57.167Z,102455.19
2022-08-07T11:56:15.726Z,102446.50
2022-08-07T11:59:00.920Z,102449.91
2022-08-07T12:01:59.354Z,102455.53
2022-08-07T12:04:47.337Z,102453.53
2022-08-07T12:07:27.055Z,102452.19
2022-08-07T12:10:05.871Z,102396.13
2022-08-07T12:12:41.933Z,102448.22
2022-08-07T12:15:46.666Z,102460.06
2022-08-07T12:18:16.039Z,102459.81
2022-08-07T12:21:06.806Z,102456.00
2022-08-07T12:24:06.633Z,102452.41
2022-08-07T12:26:46.643Z,102450.53
2022-08-07T12:29:38.071Z,102444.34
2022-08-07T12:32:16.871Z,102451.78
2022-08-07T12:34:49.184Z,102449.84
2022-08-07T12:37:28.115Z,102447.13
2022-08-07T12:40:36.206Z,102441.75
2022-08-07T12:43:09.281Z,102438.94
2022-08-07T12:45:52.384Z,102449.56
2022-08-07T12:48:41.519Z,102432.50
2022-08-07T12:51:33.378Z,102439.91
2022-08-07T12:54:38.299Z,102437.47
2022-08-07T12:57:10.051Z,102438.63
2022-08-07T12:59:54.975Z,102425.53
2022-08-07T13:02:57.331Z,102430.88
2022-08-07T13:06:03.941Z,102426.94
2022-08-07T13:08:44.659Z,102420.16
2022-08-07T13:12:02.995Z,102429.22
2022-08-07T13:14:50.948Z,102424.31
2022-08-07T13:17:41.098Z,102423.94
2022-08-07T13:20:17.780Z,102434.53
2022-08-07T13:22:53.535Z,102423.88
2022-08-07T13:25:41.836Z,102427.88
2022-08-07T13:28:24.273Z,102432.75
2022-08-07T13:31:01.529Z,102429.16
2022-08-07T13:34:29.820Z,102414.06
2022-08-07T13:36:39.357Z,102430.19
2022-08-07T13:39:28.577Z,102423.72
2022-08-07T13:42:10.460Z,102406.03
2022-08-07T13:44:41.235Z,102417.16
2022-08-07T13:47:15.733Z,102409.63
2022-08-07T13:50:32.844Z,102420.25
2022-08-07T13:52:46.884Z,102419.31
2022-08-07T13:55:26.247Z,102423.69
2022-08-07T13:58:27.829Z,102413.47
2022-08-07T14:01:08.789Z,102423.06
2022-08-07T14:04:08.152Z,102418.44
2022-08-07T14:06:37.124Z,102411.47
2022-08-07T14:09:09.821Z,102421.66
2022-08-07T14:11:53.173Z,102418.69
2022-08-07T14:14:30.707Z,102427.13
2022-08-07T14:17:32.123Z,102422.41
2022-08-07T14:20:42.347Z,102428.72
2022-08-07T14:22:53.149Z,102424.34
2022-08-07T14:25:39.495Z,102430.00
2022-08-07T14:28:19.208Z,102436.78
2022-08-07T14:30:52.326Z,102402.41
2022-08-07T14:36:14.936Z,102425.38
2022-08-07T14:38:50.455Z,102421.94
2022-08-07T14:41:33.637Z,102389.59
2022-08-07T14:44:11.595Z,102418.84
2022-08-07T14:46:51.827Z,102415.16
2022-08-07T14:49:58.538Z,102417.03
2022-08-07T14:52:27.775Z,102417.34
2022-08-07T14:55:00.447Z,102410.50
2022-08-07T15:00:31.150Z,102415.59
2022-08-07T15:03:18.888Z,102407.22
2022-08-07T15:08:47.756Z,102404.13
2022-08-07T15:11:53.171Z,102407.41
2022-08-07T15:14:22.313Z,102370.69
2022-08-07T15:17:00.537Z,102406.97
2022-08-07T15:20:30.879Z,102383.50
2022-08-07T15:25:25.404Z,102400.78
2022-08-07T15:28:34.749Z,102401.13
2022-08-07T15:31:05.678Z,102393.66
2022-08-07T15:33:36.913Z,102384.78
2022-08-07T15:36:07.822Z,102383.78
2022-08-07T15:38:58.543Z,102367.34
2022-08-07T15:42:46.126Z,102384.25
2022-08-07T15:44:24.165Z,102386.72
2022-08-07T15:47:03.351Z,102375.84
2022-08-07T15:52:30.782Z,102372.06
2022-08-07T15:55:04.664Z,102378.00
2022-08-07T15:57:47.528Z,102372.94
2022-08-07T16:00:31.732Z,102371.16
2022-08-07T16:03:08.551Z,102378.50
2022-08-07T16:05:53.063Z,102366.66
2022-08-07T16:08:33.590Z,102353.19
2022-08-07T16:11:26.965Z,102363.34
2022-08-07T16:14:10.674Z,102369.53
2022-08-07T16:17:15.359Z,102362.34
2022-08-07T16:20:03.908Z,102365.03
2022-08-07T16:23:05.439Z,102363.88
2022-08-07T16:25:56.207Z,102360.34
2022-08-07T16:30:06.516Z,102365.22
2022-08-07T16:32:02.932Z,102357.38
2022-08-07T16:34:48.413Z,102363.03
2022-08-07T16:38:03.867Z,102361.00
2022-08-07T16:41:41.485Z,102354.25
2022-08-07T16:44:55.490Z,102353.50
2022-08-07T16:48:02.538Z,102353.63
2022-08-07T16:51:20.499Z,102355.50
2022-08-07T16:54:06.403Z,102355.38
2022-08-07T16:56:53.194Z,102359.59
2022-08-07T16:59:46.097Z,102362.00
2022-08-07T17:03:05.907Z,102348.06
2022-08-07T17:06:28.926Z,102353.31
2022-08-07T17:09:14.278Z,102356.63
2022-08-07T17:12:04.578Z,102360.09
2022-08-07T17:14:51.275Z,102361.91
2022-08-07T17:17:46.553Z,102350.75
2022-08-07T17:20:31.319Z,102349.41
2022-08-07T17:23:11.430Z,102344.13
2022-08-07T17:26:01.303Z,102347.19
2022-08-07T17:28:38.803Z,102353.03
2022-08-07T17:31:24.533Z,102344.44
2022-08-07T17:34:15.635Z,102331.97
2022-08-07T17:37:08.993Z,102331.00
2022-08-07T17:39:58.701Z,102334.38
2022-08-07T17:42:59.606Z,102324.41
2022-08-07T17:45:35.874Z,102317.94
2022-08-07T17:48:12.997Z,102335.69
2022-08-07T17:50:56.441Z,102331.06
2022-08-07T17:54:00.904Z,102332.72
2022-08-07T17:56:36.494Z,102334.94
2022-08-07T17:59:25.089Z,102333.63
2022-08-07T18:02:02.865Z,102301.47
2022-08-07T18:04:36.383Z,102330.59
2022-08-07T18:07:28.497Z,102317.78
2022-08-07T18:10:32.031Z,102328.50
2022-08-07T18:13:23.019Z,102324.13
2022-08-07T18:16:06.410Z,102335.03
2022-08-07T18:21:02.499Z,102328.50
2022-08-07T18:21:55.039Z,102320.94
2022-08-07T18:24:35.374Z,102334.13
2022-08-07T18:27:50.424Z,102336.25
2022-08-07T18:30:31.818Z,102328.44
2022-08-07T18:33:58.806Z,102324.72
2022-08-07T18:36:53.690Z,102328.78
2022-08-07T18:40:05.373Z,102331.13
2022-08-07T18:42:44.413Z,102327.13
2022-08-07T18:45:43.112Z,102331.81
2022-08-07T18:50:05.225Z,102328.22
2022-08-07T18:51:14.961Z,102340.31
2022-08-07T18:54:27.574Z,102336.66
2022-08-07T18:57:29.401Z,102322.19
2022-08-07T19:00:34.560Z,102338.91
2022-08-07T19:03:12.048Z,102343.22
2022-08-07T19:06:03.221Z,102347.94
2022-08-07T19:08:47.203Z,102343.97
2022-08-07T19:11:36.378Z,102346.22
2022-08-07T19:14:17.002Z,102357.72
2022-08-07T19:17:07.023Z,102351.44
2022-08-07T19:19:53.249Z,102346.94
2022-08-07T19:22:31.052Z,102359.59
2022-08-07T19:25:06.905Z,102358.59
2022-08-07T19:28:29.377Z,102358.28
2022-08-07T19:31:01.229Z,102363.13
2022-08-07T19:33:33.517Z,102348.28
2022-08-07T19:36:04.580Z,102367.53
2022-08-07T19:38:52.683Z,102364.81
2022-08-07T19:41:44.258Z,102371.13
2022-08-07T19:44:21.684Z,102368.53
2022-08-07T19:46:58.032Z,102374.84
2022-08-07T19:49:58.372Z,102379.31
2022-08-07T19:52:28.241Z,102380.28
2022-08-07T19:54:58.319Z,102370.84
2022-08-07T19:57:59.878Z,102376.41
2022-08-07T20:00:28.443Z,102382.34
2022-08-07T20:03:03.989Z,102381.75
2022-08-07T20:06:01.268Z,102381.75
2022-08-07T20:08:31.804Z,102385.44
2022-08-07T20:11:09.889Z,102391.69
2022-08-07T20:13:46.380Z,102383.91
2022-08-07T20:16:35.944Z,102385.78
2022-08-07T20:19:09.930Z,102396.00
2022-08-07T20:21:47.700Z,102393.31
2022-08-07T20:24:22.005Z,102392.34
2022-08-07T20:26:54.815Z,102391.56
2022-08-07T20:29:49.267Z,102392.50
2022-08-07T20:32:25.283Z,102390.50
2022-08-07T20:34:58.015Z,102374.16
2022-08-07T20:37:36.912Z,102383.97
2022-08-07T20:40:31.446Z,102385.00
2022-08-07T20:42:58.817Z,102394.84
2022-08-07T20:45:33.678Z,102394.88
2022-08-07T20:48:29.598Z,102381.78
2022-08-07T20:51:02.759Z,102380.91
2022-08-07T20:54:03.433Z,102389.16
2022-08-07T20:56:28.516Z,102393.56
2022-08-07T20:59:03.162Z,102383.06
2022-08-07T21:01:45.300Z,102384.19
2022-08-07T21:04:31.192Z,102397.81
2022-08-07T21:07:04.083Z,102386.47
2022-08-07T21:09:53.221Z,102394.22
2022-08-07T21:12:32.866Z,102390.97
2022-08-07T21:15:08.402Z,102393.94
2022-08-07T21:18:17.442Z,102400.47
2022-08-07T21:20:33.295Z,102393.25
2022-08-07T21:23:09.096Z,102393.25
2022-08-07T21:25:50.891Z,102391.72
2022-08-07T21:28:48.262Z,102397.09
2022-08-07T21:31:49.249Z,102394.81
2022-08-07T21:34:31.749Z,102391.59
2022-08-07T21:37:06.045Z,102391.72
2022-08-07T21:39:51.481Z,102392.31
2022-08-07T21:42:46.150Z,102395.06
2022-08-07T21:46:09.224Z,102380.91
2022-08-07T21:48:28.502Z,102390.78
2022-08-07T21:51:19.231Z,102397.09
2022-08-07T21:53:53.676Z,102404.19
2022-08-07T21:56:37.743Z,102404.28
2022-08-07T22:00:03.972Z,102402.41
2022-08-07T22:02:42.850Z,102405.94
2022-08-07T22:05:21.966Z,102404.28
2022-08-07T22:08:05.753Z,102410.47
2022-08-07T22:10:42.431Z,102411.50
2022-08-07T22:13:15.914Z,102405.13
2022-08-07T22:16:45.004Z,102413.41
2022-08-07T22:18:55.722Z,102408.06
2022-08-07T22:22:02.087Z,102411.66
2022-08-07T22:24:32.979Z,102409.00
2022-08-07T22:27:10.269Z,102401.97
2022-08-07T22:29:48.487Z,102414.66
2022-08-07T22:32:28.672Z,102405.88
2022-08-07T22:34:59.628Z,102415.69
2022-08-07T22:38:02.802Z,102421.97
2022-08-07T22:40:34.623Z,102413.09
2022-08-07T22:43:10.125Z,102385.81
2022-08-07T22:46:21.630Z,102411.63
2022-08-07T22:49:09.701Z,102417.03
2022-08-07T22:52:01.467Z,102418.91
2022-08-07T22:55:17.511Z,102415.19
2022-08-07T22:58:16.708Z,102412.50
2022-08-07T23:01:06.427Z,102412.56
2022-08-07T23:03:57.368Z,102425.28
2022-08-07T23:06:51.711Z,102419.81
2022-08-07T23:10:06.014Z,102424.19
2022-08-07T23:12:49.016Z,102410.66
2022-08-07T23:16:05.434Z,102415.75
2022-08-07T23:18:31.978Z,102419.94
2022-08-07T23:21:36.581Z,102414.38
2022-08-07T23:24:47.670Z,102427.66
2022-08-07T23:27:34.132Z,102425.78
2022-08-07T23:30:39.457Z,102439.03
2022-08-07T23:34:35.914Z,102432.63
2022-08-07T23:37:18.914Z,102432.53
2022-08-07T23:39:44.366Z,102430.63
2022-08-07T23:42:24.590Z,102432.44
2022-08-07T23:45:33.324Z,102431.38
2022-08-07T23:48:30.746Z,102434.94
2022-08-07T23:51:04.729Z,102428.09
2022-08-07T23:54:01.951Z,102437.66
2022-08-07T23:56:38.869Z,102441.56
